createdAt,value
2023-04-18T00:00:38.612Z,8.08
2023-04-18T00:03:06.725Z,8.16
2023-04-18T00:05:38.065Z,8.08
2023-04-18T00:08:06.635Z,7.91
2023-04-18T00:10:34.536Z,7.84
2023-04-18T00:13:02.332Z,7.87
2023-04-18T00:15:30.437Z,7.75
2023-04-18T00:17:58.429Z,7.65
2023-04-18T00:20:27.119Z,7.70
2023-04-18T00:22:56.385Z,7.75
2023-04-18T00:25:24.284Z,7.72
2023-04-18T00:27:52.217Z,7.70
2023-04-18T00:30:20.126Z,7.62
2023-04-18T00:32:48.078Z,7.72
2023-04-18T00:35:16.091Z,7.70
2023-04-18T00:37:47.217Z,7.65
2023-04-18T00:40:19.276Z,7.62
2023-04-18T00:42:47.132Z,7.56
2023-04-18T00:45:15.300Z,7.58
2023-04-18T00:47:43.224Z,7.51
2023-04-18T00:50:12.012Z,7.35
2023-04-18T00:52:39.935Z,7.46
2023-04-18T00:55:08.313Z,7.42
2023-04-18T00:57:37.683Z,7.45
2023-04-18T01:00:31.309Z,7.41
2023-04-18T01:03:03.620Z,7.32
2023-04-18T01:05:31.690Z,7.21
2023-04-18T01:08:01.258Z,7.08
2023-04-18T01:10:29.685Z,7.07
2023-04-18T01:13:22.176Z,7.04
2023-04-18T01:15:51.774Z,7.07
2023-04-18T01:18:20.871Z,7.24
2023-04-18T01:20:49.962Z,7.12
2023-04-18T01:23:18.778Z,6.98
2023-04-18T01:25:55.397Z,6.98
2023-04-18T01:28:23.683Z,6.98
2023-04-18T01:30:51.795Z,6.93
2023-04-18T01:33:19.684Z,6.79
2023-04-18T01:35:48.316Z,7.05
2023-04-18T01:38:16.320Z,6.94
2023-04-18T01:40:44.209Z,6.93
2023-04-18T01:43:13.501Z,6.80
2023-04-18T01:45:41.314Z,6.84
2023-04-18T01:48:10.012Z,6.87
2023-04-18T01:50:37.955Z,6.80
2023-04-18T01:53:05.719Z,6.70
2023-04-18T01:55:33.578Z,6.57
2023-04-18T01:58:01.381Z,6.60
2023-04-18T02:00:30.736Z,6.58
2023-04-18T02:02:59.733Z,6.52
2023-04-18T02:05:28.869Z,6.37
2023-04-18T02:07:56.650Z,6.21
2023-04-18T02:10:24.767Z,6.19
2023-04-18T02:12:52.871Z,6.11
2023-04-18T02:15:20.981Z,6.03
2023-04-18T02:17:50.549Z,5.92
2023-04-18T02:20:18.660Z,5.88
2023-04-18T02:22:46.551Z,5.84
2023-04-18T02:25:14.554Z,5.97
2023-04-18T02:27:42.395Z,6.05
2023-04-18T02:30:11.310Z,5.94
2023-04-18T02:32:39.290Z,5.99
2023-04-18T02:35:09.216Z,6.12
2023-04-18T02:37:37.241Z,6.02
2023-04-18T02:40:06.075Z,5.99
2023-04-18T02:42:33.928Z,5.89
2023-04-18T02:45:03.037Z,5.67
2023-04-18T02:47:37.521Z,5.47
2023-04-18T02:50:10.992Z,5.27
2023-04-18T02:52:39.133Z,5.12
2023-04-18T02:55:09.487Z,5.26
2023-04-18T02:57:41.204Z,5.27
2023-04-18T03:00:14.858Z,5.24
2023-04-18T03:03:02.951Z,5.27
2023-04-18T03:05:58.883Z,5.12
2023-04-18T03:08:33.838Z,5.03
2023-04-18T03:11:01.966Z,4.96
2023-04-18T03:13:31.422Z,4.90
2023-04-18T03:15:59.595Z,4.85
2023-04-18T03:18:29.314Z,4.76
2023-04-18T03:21:01.353Z,4.65
2023-04-18T03:23:31.302Z,4.59
2023-04-18T03:26:00.467Z,4.75
2023-04-18T03:28:31.240Z,4.71
2023-04-18T03:31:00.024Z,4.64
2023-04-18T03:33:29.480Z,4.57
2023-04-18T03:36:08.717Z,4.45
2023-04-18T03:38:40.757Z,4.59
2023-04-18T03:41:10.116Z,4.30
2023-04-18T03:43:39.727Z,4.34
2023-04-18T03:46:07.785Z,4.25
2023-04-18T03:48:37.467Z,4.07
2023-04-18T03:51:11.590Z,3.93
2023-04-18T03:53:40.868Z,3.76
2023-04-18T03:56:08.855Z,3.76
2023-04-18T03:58:49.183Z,3.98
2023-04-18T04:01:18.226Z,3.94
2023-04-18T04:03:46.601Z,3.87
2023-04-18T04:06:17.707Z,3.90
2023-04-18T04:08:46.042Z,3.77
2023-04-18T04:11:16.283Z,3.60
2023-04-18T04:13:44.329Z,3.63
2023-04-18T04:16:13.921Z,3.52
2023-04-18T04:18:42.128Z,3.51
2023-04-18T04:21:10.054Z,3.53
2023-04-18T04:23:48.215Z,3.31
2023-04-18T04:26:27.741Z,3.22
2023-04-18T04:29:04.236Z,3.19
2023-04-18T04:31:34.898Z,3.14
2023-04-18T04:34:03.584Z,3.36
2023-04-18T04:36:33.550Z,3.40
2023-04-18T04:39:05.460Z,3.51
2023-04-18T04:41:42.857Z,3.51
2023-04-18T04:44:11.246Z,3.46
2023-04-18T04:46:41.477Z,3.53
2023-04-18T04:49:15.909Z,3.52
2023-04-18T04:51:44.378Z,3.65
2023-04-18T04:54:14.118Z,3.51
2023-04-18T04:56:42.504Z,3.72
2023-04-18T04:59:11.171Z,3.58
2023-04-18T05:01:43.672Z,3.52
2023-04-18T05:04:12.883Z,3.48
2023-04-18T05:06:41.416Z,3.49
2023-04-18T05:09:09.457Z,3.62
2023-04-18T05:11:38.949Z,3.67
2023-04-18T05:14:07.214Z,3.80
2023-04-18T05:16:36.019Z,3.93
2023-04-18T05:19:04.079Z,4.13
2023-04-18T05:21:32.737Z,4.42
2023-04-18T05:24:00.568Z,4.62
2023-04-18T05:26:28.584Z,4.80
2023-04-18T05:28:58.101Z,5.06
2023-04-18T05:31:31.009Z,5.29
2023-04-18T05:34:00.897Z,5.60
2023-04-18T05:36:29.063Z,5.97
2023-04-18T05:38:58.557Z,6.36
2023-04-18T05:41:26.608Z,6.90
2023-04-18T05:44:04.920Z,7.31
2023-04-18T05:46:35.125Z,7.82
2023-04-18T05:49:03.629Z,7.90
2023-04-18T05:51:35.218Z,8.23
2023-04-18T05:54:03.340Z,8.34
2023-04-18T05:56:31.221Z,9.03
2023-04-18T05:58:59.147Z,9.65
2023-04-18T06:01:27.650Z,9.50
2023-04-18T06:04:04.329Z,10.03
2023-04-18T06:06:33.026Z,10.01
2023-04-18T06:09:01.081Z,9.52
2023-04-18T06:11:33.555Z,9.02
2023-04-18T06:14:01.412Z,9.87
2023-04-18T06:16:29.225Z,9.38
2023-04-18T06:19:01.210Z,9.16
2023-04-18T06:21:29.609Z,10.22
2023-04-18T06:23:57.672Z,10.19
2023-04-18T06:26:25.570Z,9.54
2023-04-18T06:28:53.506Z,9.22
2023-04-18T06:31:21.486Z,9.20
2023-04-18T06:33:52.649Z,9.10
2023-04-18T06:36:22.364Z,9.02
2023-04-18T06:38:50.438Z,8.54
2023-04-18T06:41:18.438Z,8.35
2023-04-18T06:43:59.714Z,8.10
2023-04-18T06:46:31.361Z,8.42
2023-04-18T06:48:59.705Z,8.72
2023-04-18T06:51:34.163Z,10.80
2023-04-18T06:54:02.594Z,12.30
2023-04-18T06:56:30.749Z,13.02
2023-04-18T06:58:58.603Z,13.02
2023-04-18T07:01:26.536Z,12.82
2023-04-18T07:03:54.543Z,13.63
2023-04-18T07:06:26.237Z,13.76
2023-04-18T07:09:00.186Z,14.51
2023-04-18T07:11:28.121Z,15.19
2023-04-18T07:13:56.047Z,14.17
2023-04-18T07:16:24.054Z,14.22
2023-04-18T07:18:52.114Z,15.06
2023-04-18T07:21:19.958Z,14.86
2023-04-18T07:23:47.831Z,14.35
2023-04-18T07:26:17.248Z,14.04
2023-04-18T07:28:45.182Z,13.05
2023-04-18T07:31:14.561Z,13.35
2023-04-18T07:33:43.603Z,14.08
2023-04-18T07:36:11.683Z,14.83
2023-04-18T07:38:39.552Z,14.24
2023-04-18T07:41:07.411Z,15.20
2023-04-18T07:43:38.706Z,15.11
2023-04-18T07:46:07.277Z,15.69
2023-04-18T07:48:35.936Z,16.33
2023-04-18T07:51:04.997Z,15.98
2023-04-18T07:53:33.000Z,15.71
2023-04-18T07:56:00.896Z,15.33
2023-04-18T07:58:28.997Z,15.48
2023-04-18T08:00:58.459Z,15.87
2023-04-18T08:03:27.942Z,16.34
2023-04-18T08:05:56.053Z,16.61
2023-04-18T08:08:23.883Z,15.92
2023-04-18T08:10:51.872Z,16.25
2023-04-18T08:13:19.800Z,15.08
2023-04-18T08:15:47.914Z,14.72
2023-04-18T08:18:17.230Z,15.50
2023-04-18T08:20:45.062Z,15.28
2023-04-18T08:23:13.309Z,15.55
2023-04-18T08:25:41.510Z,16.01
2023-04-18T08:28:09.502Z,16.20
2023-04-18T08:30:37.388Z,17.06
2023-04-18T08:33:05.495Z,15.64
2023-04-18T08:35:35.373Z,14.34
2023-04-18T08:38:03.586Z,14.96
2023-04-18T08:40:31.359Z,15.54
2023-04-18T08:43:01.361Z,16.87
2023-04-18T08:45:29.682Z,17.03
2023-04-18T08:48:01.451Z,17.76
2023-04-18T08:50:29.766Z,17.73
2023-04-18T08:52:59.545Z,17.66
2023-04-18T08:55:27.398Z,16.74
2023-04-18T08:57:55.463Z,17.04
2023-04-18T09:00:23.929Z,13.36
2023-04-18T09:02:56.688Z,14.22
2023-04-18T09:05:25.450Z,15.54
2023-04-18T09:07:54.204Z,15.97
2023-04-18T09:10:31.112Z,15.53
2023-04-18T09:12:59.943Z,14.92
2023-04-18T09:15:28.790Z,13.86
2023-04-18T09:17:57.898Z,13.69
2023-04-18T09:20:35.775Z,13.26
2023-04-18T09:23:04.580Z,12.80
2023-04-18T09:25:36.076Z,12.22
2023-04-18T09:28:04.800Z,12.20
2023-04-18T09:30:38.068Z,12.33
2023-04-18T09:33:07.732Z,12.17
2023-04-18T09:35:36.013Z,11.90
2023-04-18T09:38:03.940Z,11.71
2023-04-18T09:40:33.919Z,12.04
2023-04-18T09:43:02.053Z,11.94
2023-04-18T09:45:30.145Z,11.71
2023-04-18T09:47:58.543Z,11.89
2023-04-18T09:50:26.463Z,11.87
2023-04-18T09:52:55.437Z,11.81
2023-04-18T09:55:23.423Z,11.52
2023-04-18T09:57:54.399Z,11.31
2023-04-18T10:00:24.521Z,11.39
2023-04-18T10:02:54.129Z,11.25
2023-04-18T10:05:25.591Z,11.35
2023-04-18T10:07:54.567Z,11.27
2023-04-18T10:10:22.853Z,10.96
2023-04-18T10:12:54.843Z,11.01
2023-04-18T10:15:23.685Z,11.25
2023-04-18T10:20:27.654Z,11.43
2023-04-18T10:22:56.241Z,11.42
2023-04-18T10:25:42.919Z,11.21
2023-04-18T10:28:12.712Z,11.48
2023-04-18T10:30:51.383Z,11.62
2023-04-18T10:33:30.286Z,11.57
2023-04-18T10:36:00.245Z,11.38
2023-04-18T10:38:28.744Z,12.09
2023-04-18T10:41:11.564Z,11.83
2023-04-18T10:43:54.306Z,11.86
2023-04-18T10:46:31.835Z,11.89
2023-04-18T10:49:16.928Z,12.51
2023-04-18T10:51:45.718Z,12.45
2023-04-18T10:54:14.732Z,12.19
2023-04-18T10:56:53.418Z,12.17
2023-04-18T10:59:23.659Z,12.84
2023-04-18T11:01:56.628Z,13.13
2023-04-18T11:04:25.088Z,14.31
2023-04-18T11:06:54.976Z,13.67
2023-04-18T11:09:23.069Z,13.66
2023-04-18T11:12:04.267Z,14.79
2023-04-18T11:14:43.090Z,14.99
2023-04-18T11:17:22.527Z,13.80
2023-04-18T11:19:51.378Z,14.08
2023-04-18T11:22:19.616Z,15.06
2023-04-18T11:24:47.470Z,15.82
2023-04-18T11:27:15.365Z,14.35
2023-04-18T11:29:43.352Z,13.40
2023-04-18T11:32:11.413Z,13.27
2023-04-18T11:34:41.180Z,12.65
2023-04-18T11:37:09.189Z,13.13
2023-04-18T11:39:42.072Z,13.77
2023-04-18T11:42:10.162Z,13.49
2023-04-18T11:44:40.042Z,14.21
2023-04-18T11:47:22.818Z,13.81
2023-04-18T11:49:57.532Z,14.29
2023-04-18T11:52:25.998Z,15.48
2023-04-18T11:54:54.139Z,15.53
2023-04-18T11:57:23.541Z,16.20
2023-04-18T11:59:55.351Z,15.67
2023-04-18T12:02:24.450Z,14.93
2023-04-18T12:04:57.689Z,13.47
2023-04-18T12:07:33.396Z,12.64
2023-04-18T12:10:01.240Z,12.72
2023-04-18T12:12:29.052Z,12.29
2023-04-18T12:15:00.685Z,12.63
2023-04-18T12:17:28.639Z,12.71
2023-04-18T12:20:02.216Z,12.88
2023-04-18T12:22:43.541Z,12.92
2023-04-18T12:25:14.186Z,13.91
2023-04-18T12:27:48.593Z,14.54
2023-04-18T12:30:17.031Z,14.85
2023-04-18T12:32:45.010Z,16.01
2023-04-18T12:35:14.699Z,14.59
2023-04-18T12:37:42.929Z,15.00
2023-04-18T12:40:11.142Z,14.17
2023-04-18T12:42:39.250Z,14.73
2023-04-18T12:45:08.844Z,14.36
2023-04-18T12:47:37.090Z,14.01
2023-04-18T12:50:05.241Z,13.94
2023-04-18T12:52:34.463Z,13.49
2023-04-18T12:55:02.357Z,14.03
2023-04-18T12:57:31.764Z,14.97
2023-04-18T13:00:00.182Z,14.05
2023-04-18T13:02:30.294Z,13.94
2023-04-18T13:04:58.489Z,13.86
2023-04-18T13:07:26.609Z,14.17
2023-04-18T13:09:56.021Z,14.22
2023-04-18T13:12:23.832Z,13.81
2023-04-18T13:14:51.712Z,13.98
2023-04-18T13:17:19.825Z,13.80
2023-04-18T13:19:47.763Z,13.84
2023-04-18T13:22:15.691Z,13.39
2023-04-18T13:24:43.515Z,13.01
2023-04-18T13:27:12.742Z,12.54
2023-04-18T13:29:41.716Z,12.75
2023-04-18T13:32:09.971Z,12.81
2023-04-18T13:34:39.270Z,13.16
2023-04-18T13:37:07.339Z,13.20
2023-04-18T13:39:35.328Z,13.30
2023-04-18T13:42:04.437Z,13.26
2023-04-18T13:44:33.956Z,13.36
2023-04-18T13:47:02.017Z,13.39
2023-04-18T13:49:30.092Z,13.50
2023-04-18T13:51:58.282Z,13.62
2023-04-18T13:54:26.717Z,13.59
2023-04-18T13:56:54.821Z,13.42
2023-04-18T13:59:22.711Z,13.56
2023-04-18T14:01:52.610Z,13.22
2023-04-18T14:04:21.728Z,13.32
2023-04-18T14:06:49.842Z,13.23
2023-04-18T14:09:18.226Z,13.12
2023-04-18T14:11:46.050Z,13.25
2023-04-18T14:14:13.950Z,13.18
2023-04-18T14:16:41.883Z,13.35
2023-04-18T14:19:11.413Z,13.69
2023-04-18T14:21:39.500Z,13.62
2023-04-18T14:24:07.897Z,13.39
2023-04-18T14:26:35.803Z,13.49
2023-04-18T14:29:04.551Z,13.35
2023-04-18T14:31:32.477Z,13.40
2023-04-18T14:34:00.437Z,13.27
2023-04-18T14:36:29.777Z,13.26
2023-04-18T14:38:57.698Z,13.13
2023-04-18T14:41:25.639Z,13.20
2023-04-18T14:43:53.784Z,13.45
2023-04-18T14:46:21.926Z,13.27
2023-04-18T14:48:49.960Z,13.01
2023-04-18T14:51:17.906Z,13.09
2023-04-18T14:53:47.268Z,13.30
2023-04-18T14:56:16.254Z,13.36
2023-04-18T14:58:44.524Z,13.74
2023-04-18T15:01:12.548Z,14.01
2023-04-18T15:03:41.266Z,13.87
2023-04-18T15:06:09.585Z,13.40
2023-04-18T15:08:37.670Z,13.45
2023-04-18T15:11:08.251Z,13.52
2023-04-18T15:13:36.389Z,13.47
2023-04-18T15:16:05.258Z,13.29
2023-04-18T15:18:33.644Z,13.22
2023-04-18T15:21:01.715Z,13.26
2023-04-18T15:23:29.658Z,13.16
2023-04-18T15:25:57.605Z,13.12
2023-04-18T15:28:27.470Z,13.15
2023-04-18T15:30:55.398Z,13.13
2023-04-18T15:33:25.199Z,13.23
2023-04-18T15:35:53.064Z,13.35
2023-04-18T15:38:21.054Z,13.45
2023-04-18T15:40:48.952Z,13.57
2023-04-18T15:43:17.325Z,13.54
2023-04-18T15:45:47.056Z,13.70
2023-04-18T15:48:14.968Z,13.78
2023-04-18T15:50:43.170Z,13.80
2023-04-18T15:53:11.157Z,13.71
2023-04-18T15:55:39.146Z,13.69
2023-04-18T15:58:07.591Z,13.54
2023-04-18T16:00:35.489Z,13.54
2023-04-18T16:03:05.263Z,13.38
2023-04-18T16:05:33.217Z,13.22
2023-04-18T16:08:02.385Z,13.16
2023-04-18T16:10:30.478Z,13.22
2023-04-18T16:12:59.677Z,13.26
2023-04-18T16:15:28.376Z,13.29
2023-04-18T16:17:56.944Z,13.32
2023-04-18T16:20:27.606Z,13.27
2023-04-18T16:22:56.193Z,13.33
2023-04-18T16:25:24.692Z,13.39
2023-04-18T16:27:52.752Z,13.38
2023-04-18T16:30:21.102Z,13.25
2023-04-18T16:32:49.233Z,13.23
2023-04-18T16:35:17.375Z,13.18
2023-04-18T16:37:46.726Z,13.18
2023-04-18T16:40:15.275Z,13.18
2023-04-18T16:42:43.139Z,13.19
2023-04-18T16:45:11.264Z,13.18
2023-04-18T16:47:39.257Z,13.20
2023-04-18T16:50:08.084Z,13.16
2023-04-18T16:52:36.058Z,13.11
2023-04-18T16:55:05.674Z,13.09
2023-04-18T16:57:33.476Z,13.12
2023-04-18T17:00:02.772Z,13.19
2023-04-18T17:02:30.931Z,13.22
2023-04-18T17:04:59.188Z,13.27
2023-04-18T17:07:27.135Z,13.29
2023-04-18T17:09:55.088Z,13.36
2023-04-18T17:12:24.520Z,13.36
2023-04-18T17:14:52.360Z,13.36
2023-04-18T17:17:20.139Z,13.35
2023-04-18T17:19:48.178Z,13.40
2023-04-18T17:22:17.082Z,13.38
2023-04-18T17:24:44.994Z,13.35
2023-04-18T17:27:13.076Z,13.33
2023-04-18T17:29:42.438Z,13.29
2023-04-18T17:32:10.428Z,13.35
2023-04-18T17:34:38.339Z,13.32
2023-04-18T17:37:06.549Z,13.35
2023-04-18T17:39:34.501Z,13.33
2023-04-18T17:42:02.321Z,13.20
2023-04-18T17:44:30.343Z,13.18
2023-04-18T17:47:13.540Z,13.05
2023-04-18T17:49:42.783Z,12.91
2023-04-18T17:52:10.785Z,12.81
2023-04-18T17:54:38.578Z,12.68
2023-04-18T17:57:06.510Z,12.61
2023-04-18T17:59:37.672Z,12.58
2023-04-18T18:02:05.817Z,12.45
2023-04-18T18:04:33.798Z,12.31
2023-04-18T18:07:04.186Z,12.33
2023-04-18T18:09:32.054Z,12.23
2023-04-18T18:11:59.985Z,12.22
2023-04-18T18:14:28.108Z,12.06
2023-04-18T18:16:56.011Z,12.07
2023-04-18T18:19:23.874Z,12.06
2023-04-18T18:21:51.756Z,11.99
2023-04-18T18:24:20.993Z,11.97
2023-04-18T18:26:51.509Z,11.96
2023-04-18T18:29:19.943Z,11.93
2023-04-18T18:31:47.855Z,11.87
2023-04-18T18:34:15.901Z,11.87
2023-04-18T18:36:44.381Z,11.81
2023-04-18T18:39:14.631Z,11.75
2023-04-18T18:41:44.098Z,11.72
2023-04-18T18:44:11.907Z,11.63
2023-04-18T18:46:40.664Z,11.58
2023-04-18T18:49:10.011Z,11.51
2023-04-18T18:51:38.123Z,11.45
2023-04-18T18:54:06.023Z,11.38
2023-04-18T18:56:34.011Z,11.32
2023-04-18T18:59:04.242Z,11.25
2023-04-18T19:01:32.420Z,11.18
2023-04-18T19:04:01.040Z,11.14
2023-04-18T19:06:29.153Z,11.08
2023-04-18T19:08:56.994Z,11.01
2023-04-18T19:11:24.965Z,11.00
2023-04-18T19:13:53.131Z,11.00
2023-04-18T19:16:22.437Z,10.84
2023-04-18T19:18:50.687Z,10.76
2023-04-18T19:21:20.301Z,10.74
2023-04-18T19:23:48.413Z,10.74
2023-04-18T19:26:16.501Z,10.67
2023-04-18T19:28:44.487Z,10.61
2023-04-18T19:31:12.506Z,10.56
2023-04-18T19:33:41.972Z,10.52
2023-04-18T19:36:09.920Z,10.43
2023-04-18T19:38:37.832Z,10.42
2023-04-18T19:41:06.018Z,10.36
2023-04-18T19:43:34.865Z,10.36
2023-04-18T19:46:02.998Z,10.26
2023-04-18T19:48:30.960Z,10.25
2023-04-18T19:51:00.302Z,10.23
2023-04-18T19:53:28.744Z,10.13
2023-04-18T19:55:57.283Z,10.13
2023-04-18T19:58:35.701Z,10.05
2023-04-18T20:01:06.159Z,10.01
2023-04-18T20:03:34.940Z,9.97
2023-04-18T20:06:05.579Z,9.92
2023-04-18T20:08:33.700Z,9.89
2023-04-18T20:11:01.777Z,9.87
2023-04-18T20:13:29.817Z,9.88
2023-04-18T20:15:57.769Z,9.85
2023-04-18T20:18:29.615Z,9.82
2023-04-18T20:20:57.764Z,9.74
2023-04-18T20:23:27.146Z,9.67
2023-04-18T20:25:55.222Z,9.64
2023-04-18T20:28:23.268Z,9.58
2023-04-18T20:30:51.697Z,9.58
2023-04-18T20:33:19.562Z,9.54
2023-04-18T20:35:47.653Z,9.61
2023-04-18T20:38:15.643Z,9.60
2023-04-18T20:40:51.620Z,9.55
2023-04-18T20:43:19.562Z,9.50
2023-04-18T20:45:51.140Z,9.52
2023-04-18T20:48:19.260Z,9.46
2023-04-18T20:50:51.447Z,9.43
2023-04-18T20:53:20.764Z,9.44
2023-04-18T20:55:50.447Z,9.38
2023-04-18T20:58:18.404Z,9.37
2023-04-18T21:00:46.416Z,9.38
2023-04-18T21:03:21.627Z,9.34
2023-04-18T21:05:49.652Z,9.34
2023-04-18T21:08:17.864Z,9.26
2023-04-18T21:11:03.595Z,9.22
2023-04-18T21:13:55.243Z,9.22
2023-04-18T21:16:23.880Z,9.09
2023-04-18T21:18:52.484Z,9.06
2023-04-18T21:21:20.522Z,8.95
2023-04-18T21:23:48.442Z,8.95
2023-04-18T21:26:18.208Z,8.86
2023-04-18T21:28:56.457Z,8.83
2023-04-18T21:31:28.959Z,8.88
2023-04-18T21:34:03.477Z,8.89
2023-04-18T21:36:31.749Z,8.83
2023-04-18T21:39:00.556Z,8.83
2023-04-18T21:41:29.873Z,8.82
2023-04-18T21:43:57.865Z,8.79
2023-04-18T21:46:26.411Z,8.76
2023-04-18T21:48:54.482Z,8.80
2023-04-18T21:51:22.316Z,8.90
2023-04-18T21:53:50.170Z,8.90
2023-04-18T21:56:18.170Z,9.03
2023-04-18T21:58:47.809Z,8.99
2023-04-18T22:01:15.720Z,8.97
2023-04-18T22:03:44.243Z,9.00
2023-04-18T22:06:12.348Z,8.97
2023-04-18T22:08:42.148Z,8.97
2023-04-18T22:11:11.569Z,8.92
2023-04-18T22:13:39.589Z,8.96
2023-04-18T22:16:10.174Z,8.99
2023-04-18T22:18:38.231Z,9.03
2023-04-18T22:21:07.685Z,9.00
2023-04-18T22:23:35.880Z,9.07
2023-04-18T22:26:03.618Z,9.07
2023-04-18T22:28:32.631Z,9.05
2023-04-18T22:31:00.816Z,9.05
2023-04-18T22:33:30.535Z,9.10
2023-04-18T22:35:58.597Z,9.15
2023-04-18T22:38:26.675Z,9.15
2023-04-18T22:40:54.672Z,9.13
2023-04-18T22:43:23.869Z,9.12
2023-04-18T22:45:52.307Z,9.09
2023-04-18T22:48:20.383Z,9.03
2023-04-18T22:50:50.103Z,9.09
2023-04-18T22:53:18.384Z,9.24
2023-04-18T22:55:46.647Z,9.19
2023-04-18T22:58:14.923Z,9.27
2023-04-18T23:00:43.108Z,9.24
2023-04-18T23:03:11.281Z,9.27
2023-04-18T23:05:39.934Z,9.36
2023-04-18T23:08:09.742Z,9.40
2023-04-18T23:10:37.700Z,9.50
2023-04-18T23:13:05.889Z,9.47
2023-04-18T23:15:33.873Z,9.52
2023-04-18T23:18:01.846Z,9.58
2023-04-18T23:20:29.759Z,9.60
2023-04-18T23:22:58.584Z,9.57
2023-04-18T23:25:28.232Z,9.62
2023-04-18T23:27:56.511Z,9.65
2023-04-18T23:30:24.553Z,9.68
2023-04-18T23:32:52.645Z,9.67
2023-04-18T23:35:20.491Z,9.71
2023-04-18T23:37:48.531Z,9.71
2023-04-18T23:40:16.488Z,9.73
2023-04-18T23:42:46.454Z,9.68
2023-04-18T23:45:14.379Z,9.75
2023-04-18T23:47:42.542Z,9.73
2023-04-18T23:50:10.886Z,9.73
2023-04-18T23:52:39.497Z,9.74
2023-04-18T23:55:08.028Z,9.73
2023-04-18T23:57:36.210Z,9.74
